This is the latest recevied weather packets stored in our database for station/object N4OOJ-13. If no packets are shown the sender has not sent any weather packets the latest 10 day(s).
| Time | Temp. | Humidity | Pressure | Rain* | Wind** | Luminosity | Snow |
|---|---|---|---|---|---|---|---|
| 1778011223 | 27.78° C | 44% | 1018 hPa | 0 mm | - | - | - |
| 1778010618 | 27.78° C | 44% | 1017.9 hPa | 0 mm | - | - | - |
| 1778010018 | 28.33° C | 45% | 1018 hPa | 0 mm | - | - | - |
| 1778009431 | 28.33° C | 45% | 1018.5 hPa | 0 mm | - | - | - |
| 1778008826 | 28.89° C | 42% | 1018.8 hPa | 0 mm | - | - | - |
| 1778008221 | 30.56° C | 40% | 1018.8 hPa | 0 mm | - | - | - |
| 1778007616 | 29.44° C | 43% | 1018.9 hPa | 0 mm | - | - | - |
| 1778007029 | 30° C | 42% | 1018.9 hPa | 0 mm | - | - | - |
| 1778006429 | 28.33° C | 44% | 1018.9 hPa | 0 mm | - | - | - |
| 1778005829 | 30° C | 42% | 1018.8 hPa | 0 mm | - | - | - |
| 1778005219 | 28.89° C | 45% | 1018.5 hPa | 0 mm | - | - | - |
| 1778004626 | 27.22° C | 48% | 1018.7 hPa | 0 mm | - | - | - |
| 1778004021 | 27.22° C | 49% | 1018.7 hPa | 0 mm | - | - | - |
| 1778003415 | 27.78° C | 45% | 1018.6 hPa | 0 mm | - | - | - |
| 1778002822 | 27.22° C | 48% | 1018.7 hPa | 0 mm | - | - | - |
| 1778002216 | 26.11° C | 49% | 1018.8 hPa | 0 mm | - | - | - |
| 1778001616 | 28.33° C | 45% | 1019 hPa | 0 mm | - | - | - |
| 1778001016 | 26.11° C | 50% | 1019.3 hPa | 0 mm | - | - | - |
| 1778000429 | 26.11° C | 49% | 1019.3 hPa | 0 mm | - | - | - |
| 1777999823 | 27.22° C | 49% | 1019.3 hPa | 0 mm | - | - | - |
| 1777999221 | 27.78° C | 48% | 1019.7 hPa | 0 mm | - | - | - |
| 1777998628 | 27.78° C | 46% | 1019.7 hPa | 0 mm | - | - | - |
| 1777998021 | 27.78° C | 47% | 1019.7 hPa | 0 mm | - | - | - |
| 1777997417 | 27.22° C | 49% | 1020 hPa | 0 mm | - | - | - |
| 1777996816 | 27.78° C | 48% | 1020 hPa | 0 mm | - | - | - |
* Rain latest hour (hover to see other rain measurements)
** Current wind speed in m/s (hover to see current wind gust speed)